createdAt,value
2023-03-17T00:00:27.873Z,100830.22
2023-03-17T00:00:59.558Z,100820.50
2023-03-17T00:01:31.136Z,100824.00
2023-03-17T00:02:02.735Z,100836.41
2023-03-17T00:02:34.340Z,100830.56
2023-03-17T00:03:06.942Z,100839.06
2023-03-17T00:03:41.732Z,100838.69
2023-03-17T00:04:14.121Z,100834.84
2023-03-17T00:04:45.556Z,100838.28
2023-03-17T00:05:23.360Z,100840.97
2023-03-17T00:05:56.618Z,100838.69
2023-03-17T00:06:29.736Z,100840.19
2023-03-17T00:07:01.393Z,100829.00
2023-03-17T00:07:32.929Z,100819.22
2023-03-17T00:08:11.582Z,100824.66
2023-03-17T00:09:02.245Z,100823.91
2023-03-17T00:09:33.791Z,100816.50
2023-03-17T00:10:13.439Z,100808.72
2023-03-17T00:10:44.821Z,100804.44
2023-03-17T00:11:17.697Z,100809.44
2023-03-17T00:11:50.112Z,100803.66
2023-03-17T00:12:21.643Z,100806.28
2023-03-17T00:12:55.136Z,100811.38
2023-03-17T00:13:27.710Z,100814.34
2023-03-17T00:13:59.211Z,100819.06
2023-03-17T00:14:30.932Z,100819.78
2023-03-17T00:15:02.604Z,100828.69
2023-03-17T00:15:34.593Z,100829.06
2023-03-17T00:16:12.706Z,100839.91
2023-03-17T00:16:49.863Z,100836.41
2023-03-17T00:17:21.364Z,100843.75
2023-03-17T00:17:55.845Z,100846.13
2023-03-17T00:18:27.787Z,100845.34
2023-03-17T00:18:59.247Z,100835.97
2023-03-17T00:19:33.459Z,100839.13
2023-03-17T00:20:06.153Z,100840.25
2023-03-17T00:20:37.573Z,100847.69
2023-03-17T00:21:21.058Z,100851.53
2023-03-17T00:21:53.205Z,100839.13
2023-03-17T00:22:24.578Z,100843.75
2023-03-17T00:22:59.476Z,100840.25
2023-03-17T00:23:31.329Z,100837.13
2023-03-17T00:24:03.141Z,100834.75
2023-03-17T00:24:34.574Z,100828.97
2023-03-17T00:25:18.627Z,100832.41
2023-03-17T00:25:51.656Z,100828.13
2023-03-17T00:26:24.125Z,100818.00
2023-03-17T00:26:55.637Z,100823.41
2023-03-17T00:27:28.297Z,100826.13
2023-03-17T00:28:00.952Z,100820.69
2023-03-17T00:28:32.519Z,100819.22
2023-03-17T00:29:05.507Z,100814.06
2023-03-17T00:29:36.948Z,100812.47
2023-03-17T00:30:10.535Z,100823.41
2023-03-17T00:30:42.015Z,100818.69
2023-03-17T00:31:22.163Z,100821.41
2023-03-17T00:31:55.268Z,100819.84
2023-03-17T00:32:27.541Z,100819.47
2023-03-17T00:32:59.337Z,100816.34
2023-03-17T00:33:33.166Z,100824.91
2023-03-17T00:34:05.809Z,100821.41
2023-03-17T00:34:37.432Z,100812.06
2023-03-17T00:35:16.220Z,100815.97
2023-03-17T00:35:47.844Z,100800.34
2023-03-17T00:36:28.062Z,100816.34
2023-03-17T00:37:00.728Z,100810.03
2023-03-17T00:37:32.136Z,100819.41
2023-03-17T00:38:04.136Z,100819.41
2023-03-17T00:38:35.563Z,100815.03
2023-03-17T00:39:44.861Z,100816.25
2023-03-17T00:40:24.956Z,100812.31
2023-03-17T00:40:56.492Z,100808.38
2023-03-17T00:41:29.518Z,100811.09
2023-03-17T00:42:01.105Z,100814.25
2023-03-17T00:42:32.583Z,100818.53
2023-03-17T00:43:04.148Z,100814.16
2023-03-17T00:43:36.331Z,100813.09
2023-03-17T00:44:08.170Z,100814.94
2023-03-17T00:44:40.608Z,100815.38
2023-03-17T00:45:12.897Z,100811.44
2023-03-17T00:45:44.827Z,100812.66
2023-03-17T00:46:22.053Z,100812.66
2023-03-17T00:46:54.528Z,100814.25
2023-03-17T00:47:26.011Z,100815.81
2023-03-17T00:47:57.698Z,100815.81
2023-03-17T00:48:32.228Z,100810.75
2023-03-17T00:49:13.243Z,100818.09
2023-03-17T00:49:44.917Z,100812.66
2023-03-17T00:50:22.267Z,100802.13
2023-03-17T00:50:54.485Z,100813.47
2023-03-17T00:51:26.017Z,100804.88
2023-03-17T00:51:57.634Z,100814.59
2023-03-17T00:52:29.321Z,100808.75
2023-03-17T00:53:01.386Z,100812.25
2023-03-17T00:53:33.182Z,100807.53
2023-03-17T00:54:04.706Z,100812.25
2023-03-17T00:54:36.627Z,100817.66
2023-03-17T00:55:09.965Z,100810.31
2023-03-17T00:55:42.788Z,100812.25
2023-03-17T00:56:17.878Z,100819.97
2023-03-17T00:56:52.086Z,100812.63
2023-03-17T00:57:23.635Z,100815.69
2023-03-17T00:57:55.106Z,100805.19
2023-03-17T00:58:31.809Z,100819.59
2023-03-17T00:59:03.713Z,100817.59
2023-03-17T00:59:42.325Z,100819.19
2023-03-17T01:00:26.836Z,100821.88
2023-03-17T01:00:58.596Z,100818.41
2023-03-17T01:01:30.174Z,100814.81
2023-03-17T01:02:01.742Z,100812.09
2023-03-17T01:02:33.619Z,100805.53
2023-03-17T01:03:05.262Z,100801.97
2023-03-17T01:03:38.809Z,100812.09
2023-03-17T01:04:12.242Z,100803.09
2023-03-17T01:04:49.928Z,100802.66
2023-03-17T01:05:25.982Z,100802.75
2023-03-17T01:05:57.835Z,100797.25
2023-03-17T01:06:29.416Z,100799.25
2023-03-17T01:07:01.169Z,100794.97
2023-03-17T01:07:32.777Z,100794.53
2023-03-17T01:08:04.444Z,100796.19
2023-03-17T01:08:36.746Z,100785.69
2023-03-17T01:09:08.314Z,100773.19
2023-03-17T01:09:41.701Z,100778.25
2023-03-17T01:10:16.478Z,100775.53
2023-03-17T01:10:48.335Z,100773.19
2023-03-17T01:11:20.238Z,100770.47
2023-03-17T01:11:51.732Z,100768.56
2023-03-17T01:12:23.515Z,100769.78
2023-03-17T01:12:58.004Z,100770.91
2023-03-17T01:13:29.603Z,100772.50
2023-03-17T01:14:00.983Z,100771.69
2023-03-17T01:14:32.394Z,100772.84
2023-03-17T01:15:04.207Z,100775.53
2023-03-17T01:15:36.189Z,100767.75
2023-03-17T01:16:10.885Z,100774.75
2023-03-17T01:16:42.772Z,100772.84
2023-03-17T01:17:18.178Z,100767.75
2023-03-17T01:17:50.704Z,100764.28
2023-03-17T01:18:22.831Z,100767.34
2023-03-17T01:18:54.686Z,100766.53
2023-03-17T01:19:26.849Z,100779.03
2023-03-17T01:19:58.506Z,100778.25
2023-03-17T01:20:35.712Z,100781.41
2023-03-17T01:21:07.715Z,100782.53
2023-03-17T01:21:39.219Z,100792.25
2023-03-17T01:22:11.459Z,100799.59
2023-03-17T01:22:43.738Z,100796.88
2023-03-17T01:23:15.332Z,100788.66
2023-03-17T01:23:47.377Z,100787.09
2023-03-17T01:24:19.571Z,100783.94
2023-03-17T01:24:51.534Z,100782.47
2023-03-17T01:25:24.700Z,100788.22
2023-03-17T01:25:56.486Z,100784.38
2023-03-17T01:26:28.552Z,100784.72
2023-03-17T01:27:00.485Z,100790.25
2023-03-17T01:27:35.366Z,100784.81
2023-03-17T01:28:07.666Z,100782.47
2023-03-17T01:28:39.262Z,100791.03
2023-03-17T01:29:11.227Z,100797.25
2023-03-17T01:29:42.998Z,100791.72
2023-03-17T01:30:23.511Z,100798.03
2023-03-17T01:30:55.497Z,100796.38
2023-03-17T01:31:26.927Z,100791.72
2023-03-17T01:31:59.025Z,100790.25
2023-03-17T01:32:30.716Z,100791.03
2023-03-17T01:33:02.317Z,100789.47
2023-03-17T01:33:33.832Z,100794.09
2023-03-17T01:34:06.357Z,100789.81
2023-03-17T01:34:37.922Z,100791.03
2023-03-17T01:35:10.377Z,100784.03
2023-03-17T01:35:43.821Z,100782.47
2023-03-17T01:36:15.712Z,100786.31
2023-03-17T01:36:47.421Z,100782.03
2023-03-17T01:37:19.287Z,100777.34
2023-03-17T01:37:51.166Z,100783.94
2023-03-17T01:38:22.665Z,100782.38
2023-03-17T01:38:54.096Z,100778.13
2023-03-17T01:39:27.378Z,100778.88
2023-03-17T01:39:59.744Z,100784.72
2023-03-17T01:40:43.408Z,100782.47
2023-03-17T01:41:14.977Z,100784.38
2023-03-17T01:41:47.152Z,100774.97
2023-03-17T01:42:20.015Z,100774.69
2023-03-17T01:42:54.646Z,100776.16
2023-03-17T01:43:29.356Z,100786.31
2023-03-17T01:44:01.164Z,100773.84
2023-03-17T01:44:32.973Z,100780.03
2023-03-17T01:45:08.256Z,100767.19
2023-03-17T01:46:17.216Z,100778.53
2023-03-17T01:46:49.479Z,100777.75
2023-03-17T01:47:20.975Z,100773.47
2023-03-17T01:49:04.648Z,100775.75
2023-03-17T01:49:38.696Z,100777.69
2023-03-17T01:50:10.625Z,100770.34
2023-03-17T01:50:42.452Z,100771.47
2023-03-17T01:51:22.262Z,100763.25
2023-03-17T01:52:09.663Z,100767.97
2023-03-17T01:52:41.594Z,100771.81
2023-03-17T01:53:13.673Z,100768.34
2023-03-17T01:53:48.140Z,100765.19
2023-03-17T01:54:26.492Z,100771.81
2023-03-17T01:55:07.065Z,100771.75
2023-03-17T01:55:38.738Z,100768.59
2023-03-17T01:56:11.777Z,100764.66
2023-03-17T01:56:46.643Z,100765.44
2023-03-17T01:57:37.097Z,100777.16
2023-03-17T01:58:09.463Z,100767.81
2023-03-17T01:58:41.764Z,100773.59
2023-03-17T01:59:19.457Z,100770.88
2023-03-17T01:59:55.556Z,100771.66
2023-03-17T02:00:26.953Z,100768.50
2023-03-17T02:00:58.398Z,100771.22
2023-03-17T02:01:35.287Z,100767.72
2023-03-17T02:02:11.048Z,100763.44
2023-03-17T02:02:45.661Z,100768.06
2023-03-17T02:03:17.837Z,100762.56
2023-03-17T02:03:49.599Z,100760.25
2023-03-17T02:04:21.981Z,100758.66
2023-03-17T02:04:53.711Z,100757.88
2023-03-17T02:05:28.377Z,100754.03
2023-03-17T02:06:01.461Z,100757.88
2023-03-17T02:06:34.934Z,100751.69
2023-03-17T02:07:25.992Z,100753.25
2023-03-17T02:07:57.600Z,100753.25
2023-03-17T02:08:29.110Z,100745.47
2023-03-17T02:09:01.547Z,100742.31
2023-03-17T02:09:34.330Z,100742.31
2023-03-17T02:10:06.736Z,100739.63
2023-03-17T02:10:39.096Z,100748.97
2023-03-17T02:11:10.619Z,100743.09
2023-03-17T02:11:42.111Z,100738.75
2023-03-17T02:12:15.204Z,100741.53
2023-03-17T02:12:50.970Z,100731.03
2023-03-17T02:13:22.983Z,100740.47
2023-03-17T02:13:54.722Z,100740.06
2023-03-17T02:14:26.698Z,100736.56
2023-03-17T02:14:58.668Z,100729.13
2023-03-17T02:15:43.029Z,100735.41
2023-03-17T02:16:16.577Z,100743.53
2023-03-17T02:16:48.583Z,100741.97
2023-03-17T02:17:22.246Z,100745.38
2023-03-17T02:17:54.203Z,100734.91
2023-03-17T02:18:25.866Z,100741.44
2023-03-17T02:18:57.405Z,100735.59
2023-03-17T02:19:29.254Z,100736.38
2023-03-17T02:20:33.028Z,100740.75
2023-03-17T02:21:25.819Z,100737.25
2023-03-17T02:21:58.738Z,100736.03
2023-03-17T02:22:30.301Z,100731.41
2023-03-17T02:23:02.431Z,100731.75
2023-03-17T02:23:34.127Z,100729.38
2023-03-17T02:24:10.734Z,100725.53
2023-03-17T02:24:48.631Z,100736.72
2023-03-17T02:25:21.325Z,100732.53
2023-03-17T02:25:54.048Z,100741.81
2023-03-17T02:26:26.653Z,100742.94
2023-03-17T02:27:03.556Z,100734.38
2023-03-17T02:27:44.004Z,100742.84
2023-03-17T02:28:21.372Z,100737.44
2023-03-17T02:28:53.689Z,100740.09
2023-03-17T02:29:25.348Z,100732.66
2023-03-17T02:29:57.958Z,100747.84
2023-03-17T02:30:29.750Z,100740.44
2023-03-17T02:31:01.441Z,100729.94
2023-03-17T02:31:33.522Z,100740.84
2023-03-17T02:32:05.906Z,100738.84
2023-03-17T02:32:38.637Z,100734.56
2023-03-17T02:33:11.958Z,100733.50
2023-03-17T02:33:43.814Z,100726.88
2023-03-17T02:34:15.892Z,100736.22
2023-03-17T02:34:48.431Z,100739.66
2023-03-17T02:35:20.472Z,100735.41
2023-03-17T02:35:52.011Z,100727.59
2023-03-17T02:36:23.961Z,100736.59
2023-03-17T02:36:55.463Z,100731.53
2023-03-17T02:37:27.467Z,100733.88
2023-03-17T02:37:58.907Z,100740.84
2023-03-17T02:38:30.823Z,100730.72
2023-03-17T02:39:02.502Z,100729.94
2023-03-17T02:39:34.304Z,100738.50
2023-03-17T02:40:07.330Z,100733.44
2023-03-17T02:40:38.733Z,100728.81
2023-03-17T02:41:10.578Z,100727.94
2023-03-17T02:41:42.455Z,100734.22
2023-03-17T02:42:14.608Z,100734.66
2023-03-17T02:42:46.801Z,100730.38
2023-03-17T02:43:18.455Z,100727.25
2023-03-17T02:43:50.469Z,100720.59
2023-03-17T02:44:21.960Z,100723.31
2023-03-17T02:44:53.492Z,100725.31
2023-03-17T02:45:25.213Z,100728.81
2023-03-17T02:45:56.657Z,100724.88
2023-03-17T02:46:28.271Z,100728.03
2023-03-17T02:47:01.101Z,100725.66
2023-03-17T02:47:32.816Z,100728.81
2023-03-17T02:48:05.396Z,100718.69
2023-03-17T02:48:38.068Z,100721.81
2023-03-17T02:49:10.686Z,100711.34
2023-03-17T02:49:43.169Z,100718.69
2023-03-17T02:50:22.048Z,100720.25
2023-03-17T02:50:53.409Z,100717.88
2023-03-17T02:51:24.869Z,100718.69
2023-03-17T02:51:57.170Z,100717.09
2023-03-17T02:52:28.682Z,100721.03
2023-03-17T02:53:00.227Z,100726.09
2023-03-17T02:53:32.217Z,100721.03
2023-03-17T02:54:04.350Z,100721.72
2023-03-17T02:54:36.077Z,100710.47
2023-03-17T02:55:08.312Z,100719.81
2023-03-17T02:55:39.792Z,100723.66
2023-03-17T02:56:11.494Z,100720.25
2023-03-17T02:56:43.299Z,100717.53
2023-03-17T02:57:14.739Z,100715.97
2023-03-17T02:57:46.761Z,100710.53
2023-03-17T02:58:18.163Z,100715.97
2023-03-17T02:58:49.776Z,100713.97
2023-03-17T02:59:21.302Z,100728.03
2023-03-17T02:59:52.932Z,100726.00
2023-03-17T03:00:24.512Z,100724.88
2023-03-17T03:00:56.615Z,100724.09
2023-03-17T03:01:29.499Z,100731.09
2023-03-17T03:02:01.376Z,100732.56
2023-03-17T03:02:33.231Z,100738.06
2023-03-17T03:03:04.676Z,100745.50
2023-03-17T03:03:36.328Z,100735.00
2023-03-17T03:04:08.652Z,100736.16
2023-03-17T03:04:40.393Z,100735.28
2023-03-17T03:05:11.798Z,100734.13
2023-03-17T03:05:43.450Z,100729.06
2023-03-17T03:06:15.011Z,100737.28
2023-03-17T03:06:47.646Z,100739.66
2023-03-17T03:07:19.250Z,100736.94
2023-03-17T03:07:51.460Z,100735.72
2023-03-17T03:08:23.196Z,100732.56
2023-03-17T03:08:54.723Z,100735.38
2023-03-17T03:09:26.133Z,100729.50
2023-03-17T03:09:57.493Z,100734.94
2023-03-17T03:10:29.093Z,100733.44
2023-03-17T03:11:02.498Z,100732.66
2023-03-17T03:11:34.143Z,100730.28
2023-03-17T03:12:05.974Z,100728.81
2023-03-17T03:12:37.423Z,100737.00
2023-03-17T03:13:08.987Z,100725.66
2023-03-17T03:13:40.660Z,100720.25
2023-03-17T03:14:12.600Z,100726.09
2023-03-17T03:14:44.013Z,100730.78
2023-03-17T03:15:15.657Z,100724.97
2023-03-17T03:15:47.749Z,100732.34
2023-03-17T03:16:19.225Z,100723.38
2023-03-17T03:16:50.965Z,100723.84
2023-03-17T03:17:22.406Z,100727.28
2023-03-17T03:17:53.854Z,100724.19
2023-03-17T03:18:26.170Z,100729.59
2023-03-17T03:18:57.720Z,100728.06
2023-03-17T03:19:29.630Z,100722.97
2023-03-17T03:20:01.233Z,100725.66
2023-03-17T03:20:32.635Z,100719.47
2023-03-17T03:21:05.581Z,100722.16
2023-03-17T03:21:37.248Z,100726.53
2023-03-17T03:22:08.837Z,100717.19
2023-03-17T03:22:40.596Z,100721.47
2023-03-17T03:23:12.255Z,100719.47
2023-03-17T03:23:43.850Z,100710.97
2023-03-17T03:24:15.330Z,100716.41
2023-03-17T03:24:46.858Z,100721.13
2023-03-17T03:25:18.321Z,100719.91
2023-03-17T03:25:49.771Z,100710.63
2023-03-17T03:26:21.714Z,100716.84
2023-03-17T03:26:53.284Z,100714.91
2023-03-17T03:27:24.660Z,100722.66
2023-03-17T03:27:56.117Z,100711.81
2023-03-17T03:28:27.869Z,100712.63
2023-03-17T03:29:00.078Z,100709.13
2023-03-17T03:29:31.566Z,100711.47
2023-03-17T03:30:04.172Z,100714.19
2023-03-17T03:30:37.006Z,100718.03
2023-03-17T03:31:08.834Z,100721.13
2023-03-17T03:31:40.558Z,100723.84
2023-03-17T03:32:12.041Z,100737.44
2023-03-17T03:32:43.998Z,100732.34
2023-03-17T03:33:16.615Z,100732.81
2023-03-17T03:33:48.209Z,100727.38
2023-03-17T03:34:19.892Z,100724.22
2023-03-17T03:34:52.040Z,100723.44
2023-03-17T03:35:23.516Z,100726.94
2023-03-17T03:35:55.313Z,100729.66
2023-03-17T03:36:27.553Z,100732.81
2023-03-17T03:36:59.206Z,100724.22
2023-03-17T03:37:30.607Z,100733.22
2023-03-17T03:38:02.199Z,100731.22
2023-03-17T03:38:33.918Z,100727.72
2023-03-17T03:39:05.461Z,100731.22
2023-03-17T03:39:39.049Z,100721.53
2023-03-17T03:40:11.279Z,100731.31
2023-03-17T03:40:42.931Z,100723.88
2023-03-17T03:41:14.388Z,100730.53
2023-03-17T03:41:45.833Z,100725.91
2023-03-17T03:42:18.093Z,100727.13
2023-03-17T03:42:49.859Z,100723.09
2023-03-17T03:43:23.902Z,100723.88
2023-03-17T03:43:55.725Z,100731.31
2023-03-17T03:44:27.513Z,100732.88
2023-03-17T03:44:59.198Z,100735.25
2023-03-17T03:45:31.357Z,100734.47
2023-03-17T03:46:04.765Z,100739.97
2023-03-17T03:46:36.385Z,100735.25
2023-03-17T03:47:08.259Z,100741.09
2023-03-17T03:47:39.699Z,100741.44
2023-03-17T03:48:11.224Z,100743.81
2023-03-17T03:48:42.730Z,100747.75
2023-03-17T03:49:14.106Z,100736.91
2023-03-17T03:49:45.482Z,100733.66
2023-03-17T03:50:17.288Z,100742.25
2023-03-17T03:50:48.685Z,100739.88
2023-03-17T03:51:20.270Z,100741.09
2023-03-17T03:51:51.675Z,100735.78
2023-03-17T03:52:23.385Z,100734.53
2023-03-17T03:52:54.872Z,100736.91
2023-03-17T03:53:27.071Z,100737.69
2023-03-17T03:53:58.558Z,100734.19
2023-03-17T03:54:30.134Z,100729.56
2023-03-17T03:55:01.628Z,100738.47
2023-03-17T03:55:33.124Z,100736.56
2023-03-17T03:56:04.944Z,100721.34
2023-03-17T03:56:36.421Z,100739.25
2023-03-17T03:57:08.066Z,100731.84
2023-03-17T03:57:39.529Z,100742.41
2023-03-17T03:58:11.274Z,100735.41
2023-03-17T03:58:42.766Z,100739.69
2023-03-17T03:59:15.089Z,100736.19
2023-03-17T03:59:46.509Z,100728.44
2023-03-17T04:00:18.356Z,100734.72
2023-03-17T04:00:50.486Z,100730.44
2023-03-17T04:01:21.924Z,100723.78
2023-03-17T04:01:53.311Z,100734.28
2023-03-17T04:02:24.718Z,100726.50
2023-03-17T04:02:56.294Z,100730.78
2023-03-17T04:03:28.142Z,100734.72
2023-03-17T04:03:59.454Z,100730.06
2023-03-17T04:04:31.631Z,100736.63
2023-03-17T04:05:03.232Z,100733.53
2023-03-17T04:05:34.934Z,100727.00
2023-03-17T04:06:06.787Z,100735.47
2023-03-17T04:06:38.297Z,100731.22
2023-03-17T04:07:10.140Z,100726.19
2023-03-17T04:07:43.049Z,100725.41
2023-03-17T04:08:14.763Z,100723.44
2023-03-17T04:08:46.463Z,100720.72
2023-03-17T04:09:18.011Z,100725.78
2023-03-17T04:09:49.480Z,100728.50
2023-03-17T04:10:21.338Z,100732.41
2023-03-17T04:10:55.055Z,100728.91
2023-03-17T04:11:26.709Z,100736.34
2023-03-17T04:11:58.388Z,100727.34
2023-03-17T04:12:29.931Z,100727.34
2023-03-17T04:13:01.351Z,100733.97
2023-03-17T04:13:32.925Z,100732.41
2023-03-17T04:14:06.422Z,100737.13
2023-03-17T04:14:37.962Z,100728.91
2023-03-17T04:15:13.853Z,100738.34
2023-03-17T04:15:45.460Z,100728.66
2023-03-17T04:16:17.203Z,100730.56
2023-03-17T04:16:48.635Z,100732.94
2023-03-17T04:17:20.091Z,100735.19
2023-03-17T04:17:51.938Z,100741.84
2023-03-17T04:18:23.755Z,100736.44
2023-03-17T04:18:55.479Z,100728.22
2023-03-17T04:19:27.482Z,100739.56
2023-03-17T04:19:58.943Z,100727.88
2023-03-17T04:20:30.706Z,100736.00
2023-03-17T04:21:02.182Z,100742.63
2023-03-17T04:21:33.759Z,100739.13
2023-03-17T04:22:10.873Z,100749.63
2023-03-17T04:22:43.339Z,100751.47
2023-03-17T04:23:14.873Z,100745.34
2023-03-17T04:23:46.490Z,100755.84
2023-03-17T04:24:17.968Z,100750.75
2023-03-17T04:24:49.551Z,100751.56
2023-03-17T04:25:21.620Z,100753.47
2023-03-17T04:25:53.622Z,100746.84
2023-03-17T04:26:25.242Z,100747.25
2023-03-17T04:26:56.904Z,100736.78
2023-03-17T04:27:28.839Z,100745.00
2023-03-17T04:28:00.556Z,100741.84
2023-03-17T04:28:31.998Z,100738.00
2023-03-17T04:29:03.681Z,100736.44
2023-03-17T04:29:36.472Z,100738.00
2023-03-17T04:30:10.626Z,100743.50
2023-03-17T04:30:42.400Z,100741.06
2023-03-17T04:31:13.953Z,100748.13
2023-03-17T04:31:45.915Z,100744.22
2023-03-17T04:32:17.723Z,100748.56
2023-03-17T04:32:49.270Z,100743.50
2023-03-17T04:33:20.908Z,100733.72
2023-03-17T04:33:52.923Z,100746.56
2023-03-17T04:34:24.404Z,100738.78
2023-03-17T04:34:56.107Z,100739.66
2023-03-17T04:35:29.430Z,100746.66
2023-03-17T04:36:01.503Z,100735.72
2023-03-17T04:36:33.142Z,100741.56
2023-03-17T04:37:04.830Z,100735.03
2023-03-17T04:37:36.879Z,100743.59
2023-03-17T04:38:10.392Z,100739.56
2023-03-17T04:38:41.821Z,100737.72
2023-03-17T04:39:14.285Z,100743.59
2023-03-17T04:39:46.327Z,100733.44
2023-03-17T04:40:18.935Z,100740.44
2023-03-17T04:40:51.085Z,100738.94
2023-03-17T04:41:22.546Z,100732.75
2023-03-17T04:41:53.975Z,100737.38
2023-03-17T04:42:25.719Z,100727.25
2023-03-17T04:42:57.129Z,100724.19
2023-03-17T04:43:28.549Z,100732.75
2023-03-17T04:44:00.158Z,100732.75
2023-03-17T04:44:32.102Z,100731.16
2023-03-17T04:45:09.394Z,100726.88
2023-03-17T04:45:41.132Z,100735.81
2023-03-17T04:46:12.774Z,100745.16
2023-03-17T04:46:44.439Z,100748.22
2023-03-17T04:47:16.772Z,100747.88
2023-03-17T04:47:48.258Z,100746.66
2023-03-17T04:48:19.721Z,100749.34
2023-03-17T04:48:51.211Z,100749.00
2023-03-17T04:49:22.738Z,100742.81
2023-03-17T04:49:54.423Z,100746.34
2023-03-17T04:50:26.482Z,100748.66
2023-03-17T04:50:58.525Z,100756.44
2023-03-17T04:51:31.184Z,100751.00
2023-03-17T04:52:02.651Z,100743.22
2023-03-17T04:52:35.277Z,100761.41
2023-03-17T04:53:06.937Z,100754.06
2023-03-17T04:53:38.756Z,100759.91
2023-03-17T04:54:10.235Z,100752.16
2023-03-17T04:54:42.127Z,100749.44
2023-03-17T04:55:13.785Z,100741.72
2023-03-17T04:55:45.897Z,100744.81
2023-03-17T04:56:17.261Z,100743.63
2023-03-17T04:56:48.883Z,100743.72
2023-03-17T04:57:20.621Z,100739.38
2023-03-17T04:57:52.116Z,100744.41
2023-03-17T04:58:30.695Z,100738.16
2023-03-17T04:59:02.833Z,100744.81
2023-03-17T04:59:34.326Z,100745.59
2023-03-17T05:00:07.422Z,100738.59
2023-03-17T05:00:39.398Z,100751.06
2023-03-17T05:01:11.161Z,100744.41
2023-03-17T05:01:42.704Z,100744.81
2023-03-17T05:02:14.239Z,100749.06
2023-03-17T05:02:45.891Z,100749.50
2023-03-17T05:03:26.712Z,100749.84
2023-03-17T05:03:59.206Z,100750.63
2023-03-17T05:04:32.213Z,100743.63
2023-03-17T05:05:04.387Z,100745.28
2023-03-17T05:05:36.167Z,100741.00
2023-03-17T05:06:08.438Z,100736.28
2023-03-17T05:06:40.564Z,100738.66
2023-03-17T05:07:12.872Z,100742.59
2023-03-17T05:07:44.921Z,100729.38
2023-03-17T05:08:17.043Z,100739.09
2023-03-17T05:08:48.772Z,100746.44
2023-03-17T05:09:20.400Z,100744.06
2023-03-17T05:09:51.896Z,100752.28
2023-03-17T05:10:23.436Z,100749.13
2023-03-17T05:10:56.202Z,100753.06
2023-03-17T05:11:27.608Z,100755.00
2023-03-17T05:11:59.033Z,100749.50
2023-03-17T05:12:32.352Z,100749.13
2023-03-17T05:13:03.948Z,100743.28
2023-03-17T05:13:35.876Z,100755.00
2023-03-17T05:14:07.259Z,100746.00
2023-03-17T05:14:38.748Z,100752.63
2023-03-17T05:15:11.165Z,100751.84
2023-03-17T05:15:52.883Z,100758.84
2023-03-17T05:16:24.531Z,100756.91
2023-03-17T05:16:56.280Z,100755.34
2023-03-17T05:17:27.760Z,100761.56
2023-03-17T05:17:59.189Z,100756.50
2023-03-17T05:18:30.589Z,100760.78
2023-03-17T05:19:20.762Z,100758.41
2023-03-17T05:19:52.211Z,100767.75
2023-03-17T05:20:24.110Z,100761.13
2023-03-17T05:20:55.651Z,100765.06
2023-03-17T05:21:27.099Z,100768.56
2023-03-17T05:22:47.493Z,100756.91
2023-03-17T05:23:19.112Z,100759.28
2023-03-17T05:23:51.566Z,100753.06
2023-03-17T05:24:23.838Z,100758.50
2023-03-17T05:24:55.475Z,100752.28
2023-03-17T05:25:26.884Z,100742.16
2023-03-17T05:25:58.349Z,100753.84
2023-03-17T05:26:29.905Z,100746.88
2023-03-17T05:27:01.367Z,100741.78
2023-03-17T05:27:32.855Z,100737.50
2023-03-17T05:28:04.585Z,100739.09
2023-03-17T05:28:36.403Z,100742.66
2023-03-17T05:29:08.980Z,100751.59
2023-03-17T05:29:40.523Z,100743.00
2023-03-17T05:30:12.467Z,100737.59
2023-03-17T05:30:43.995Z,100741.44
2023-03-17T05:31:15.538Z,100741.44
2023-03-17T05:31:47.358Z,100739.09
2023-03-17T05:32:19.749Z,100740.22
2023-03-17T05:32:51.777Z,100742.59
2023-03-17T05:33:24.989Z,100725.88
2023-03-17T05:33:56.722Z,100743.81
2023-03-17T05:34:28.168Z,100730.94
2023-03-17T05:34:59.895Z,100720.81
2023-03-17T05:35:31.402Z,100732.16
2023-03-17T05:36:03.565Z,100731.75
2023-03-17T05:36:36.740Z,100725.88
2023-03-17T05:37:08.865Z,100743.72
2023-03-17T05:37:40.437Z,100745.72
2023-03-17T05:38:13.510Z,100743.00
2023-03-17T05:38:45.740Z,100740.66
2023-03-17T05:39:17.563Z,100743.00
2023-03-17T05:39:49.078Z,100721.59
2023-03-17T05:40:21.953Z,100729.03
2023-03-17T05:40:54.430Z,100737.16
2023-03-17T05:41:29.406Z,100733.22
2023-03-17T05:42:00.806Z,100735.59
2023-03-17T05:42:32.175Z,100730.09
2023-03-17T05:43:04.789Z,100728.16
2023-03-17T05:43:37.419Z,100725.84
2023-03-17T05:44:09.189Z,100729.31
2023-03-17T05:44:40.621Z,100731.75
2023-03-17T05:45:13.106Z,100735.59
2023-03-17T05:45:45.512Z,100730.16
2023-03-17T05:46:19.208Z,100722.75
2023-03-17T05:46:51.656Z,100725.88
2023-03-17T05:47:23.171Z,100722.75
2023-03-17T05:47:54.533Z,100730.88
2023-03-17T05:48:26.519Z,100717.31
2023-03-17T05:48:58.042Z,100721.94
2023-03-17T05:49:31.165Z,100711.50
2023-03-17T05:50:04.963Z,100712.31
2023-03-17T05:50:36.515Z,100718.97
2023-03-17T05:51:08.014Z,100711.97
2023-03-17T05:51:39.572Z,100705.69
2023-03-17T05:52:11.076Z,100697.94
2023-03-17T05:52:43.317Z,100705.78
2023-03-17T05:53:14.922Z,100703.41
2023-03-17T05:53:46.421Z,100698.72
2023-03-17T05:54:18.036Z,100697.16
2023-03-17T05:54:49.505Z,100697.16
2023-03-17T05:55:21.276Z,100687.44
2023-03-17T05:55:53.027Z,100693.31
2023-03-17T05:56:26.618Z,100701.06
2023-03-17T05:56:58.332Z,100703.41
2023-03-17T05:57:30.474Z,100697.56
2023-03-17T05:58:04.391Z,100700.34
2023-03-17T05:58:36.586Z,100702.97
2023-03-17T05:59:09.425Z,100705.78
2023-03-17T05:59:41.149Z,100705.78
2023-03-17T06:00:13.951Z,100697.56
2023-03-17T06:00:45.430Z,100712.31
2023-03-17T06:01:16.987Z,100699.91
2023-03-17T06:01:48.368Z,100706.19
2023-03-17T06:02:20.902Z,100695.72
2023-03-17T06:02:52.346Z,100690.28
2023-03-17T06:03:24.035Z,100691.38
2023-03-17T06:03:55.764Z,100690.28
2023-03-17T06:04:27.290Z,100699.63
2023-03-17T06:04:59.357Z,100692.56
2023-03-17T06:05:49.431Z,100698.06
2023-03-17T06:06:20.771Z,100695.78
2023-03-17T06:06:52.404Z,100702.00
2023-03-17T06:07:23.799Z,100702.00
2023-03-17T06:07:56.593Z,100704.34
2023-03-17T06:08:28.331Z,100707.78
2023-03-17T06:09:00.136Z,100708.19
2023-03-17T06:09:33.217Z,100706.63
2023-03-17T06:10:05.359Z,100705.94
2023-03-17T06:10:36.785Z,100709.00
2023-03-17T06:11:08.211Z,100707.41
2023-03-17T06:11:39.599Z,100707.84
2023-03-17T06:12:11.366Z,100701.22
2023-03-17T06:12:42.781Z,100710.56
2023-03-17T06:13:15.022Z,100711.00
2023-03-17T06:13:46.959Z,100709.34
2023-03-17T06:14:19.438Z,100703.91
2023-03-17T06:14:50.923Z,100716.78
2023-03-17T06:15:22.680Z,100719.47
2023-03-17T06:15:54.241Z,100715.28
2023-03-17T06:16:26.137Z,100713.63